createdAt,value
2022-10-23T00:01:36.991Z,0.50
2022-10-23T00:04:08.339Z,0.40
2022-10-23T00:06:37.105Z,0.40
2022-10-23T00:09:09.432Z,1.02
2022-10-23T00:11:37.675Z,1.27
2022-10-23T00:14:08.422Z,0.90
2022-10-23T00:16:36.821Z,1.27
2022-10-23T00:19:05.750Z,1.08
2022-10-23T00:21:33.737Z,0.88
2022-10-23T00:24:01.585Z,0.65
2022-10-23T00:26:30.888Z,1.30
2022-10-23T00:28:58.641Z,0.90
2022-10-23T00:31:27.172Z,0.95
2022-10-23T00:33:54.904Z,1.05
2022-10-23T00:36:23.332Z,0.70
2022-10-23T00:38:52.198Z,0.88
2022-10-23T00:41:23.375Z,1.23
2022-10-23T00:44:09.256Z,0.50
2022-10-23T00:46:39.553Z,0.82
2022-10-23T00:49:09.046Z,0.95
2022-10-23T00:51:44.168Z,0.60
2022-10-23T00:54:29.922Z,0.60
2022-10-23T00:57:03.410Z,0.63
2022-10-23T00:59:34.026Z,0.75
2022-10-23T01:02:01.837Z,0.65
2022-10-23T01:04:31.283Z,0.68
2022-10-23T01:07:11.094Z,0.70
2022-10-23T01:09:47.557Z,0.68
2022-10-23T01:12:25.506Z,0.98
2022-10-23T01:15:08.037Z,0.60
2022-10-23T01:17:44.577Z,1.15
2022-10-23T01:20:32.690Z,1.23
2022-10-23T01:23:36.124Z,0.77
2022-10-23T01:26:25.301Z,0.80
2022-10-23T01:29:02.463Z,0.82
2022-10-23T01:31:40.346Z,1.10
2022-10-23T01:34:17.102Z,0.70
2022-10-23T01:36:51.700Z,1.02
2022-10-23T01:41:57.927Z,0.80
2022-10-23T01:44:34.890Z,1.13
2022-10-23T01:47:06.761Z,0.45
2022-10-23T01:49:37.113Z,1.30
2022-10-23T01:52:10.629Z,0.70
2022-10-23T01:54:44.363Z,1.33
2022-10-23T01:57:18.878Z,0.83
2022-10-23T02:02:25.674Z,0.80
2022-10-23T02:05:01.006Z,0.98
2022-10-23T02:07:28.892Z,0.63
2022-10-23T02:09:56.692Z,0.68
2022-10-23T02:12:39.862Z,1.08
2022-10-23T02:15:14.539Z,0.90
2022-10-23T02:17:56.206Z,0.88
2022-10-23T02:20:35.506Z,0.80
2022-10-23T02:23:21.242Z,1.02
2022-10-23T02:25:57.692Z,0.70
2022-10-23T02:28:34.127Z,0.50
2022-10-23T02:31:08.094Z,0.77
2022-10-23T02:33:37.483Z,0.70
2022-10-23T02:36:06.024Z,0.98
2022-10-23T02:38:40.319Z,0.70
2022-10-23T02:41:26.386Z,0.68
2022-10-23T02:44:17.214Z,0.30
2022-10-23T02:46:57.054Z,0.80
2022-10-23T02:49:33.794Z,0.95
2022-10-23T02:52:12.168Z,1.17
2022-10-23T02:55:02.731Z,1.20
2022-10-23T02:57:36.590Z,0.68
2022-10-23T03:00:11.379Z,0.30
2022-10-23T03:02:46.598Z,0.85
2022-10-23T03:05:20.491Z,0.50
2022-10-23T03:07:49.005Z,0.40
2022-10-23T03:10:17.098Z,0.38
2022-10-23T03:12:46.967Z,0.22
2022-10-23T03:15:14.666Z,0.30
2022-10-23T03:17:44.995Z,0.68
2022-10-23T03:20:13.277Z,0.70
2022-10-23T03:22:41.526Z,0.52
2022-10-23T03:25:10.875Z,0.40
2022-10-23T03:27:38.928Z,0.60
2022-10-23T03:30:08.598Z,0.32
2022-10-23T03:32:36.475Z,0.63
2022-10-23T03:35:06.866Z,0.60
2022-10-23T03:37:34.780Z,0.35
2022-10-23T03:40:02.668Z,0.40
2022-10-23T03:42:31.428Z,1.20
2022-10-23T03:44:59.143Z,1.02
2022-10-23T03:47:27.106Z,0.30
2022-10-23T03:49:54.982Z,0.80
2022-10-23T03:54:57.800Z,1.60
2022-10-23T03:57:25.753Z,1.63
2022-10-23T03:59:54.181Z,1.30
2022-10-23T04:02:22.002Z,1.58
2022-10-23T04:04:49.772Z,1.80
2022-10-23T04:07:17.464Z,2.13
2022-10-23T04:09:46.560Z,1.92
2022-10-23T04:12:15.316Z,1.42
2022-10-23T04:14:43.082Z,1.05
2022-10-23T04:17:10.766Z,1.50
2022-10-23T04:19:38.474Z,1.20
2022-10-23T04:22:06.230Z,0.75
2022-10-23T04:24:34.064Z,1.40
2022-10-23T04:27:03.117Z,1.48
2022-10-23T04:29:32.341Z,1.30
2022-10-23T04:32:00.146Z,1.42
2022-10-23T04:34:27.869Z,1.08
2022-10-23T04:36:55.888Z,1.70
2022-10-23T04:39:23.812Z,1.05
2022-10-23T04:41:51.541Z,1.33
2022-10-23T04:44:20.672Z,0.68
2022-10-23T04:46:48.367Z,1.33
2022-10-23T04:49:16.056Z,0.73
2022-10-23T04:51:43.807Z,0.88
2022-10-23T04:54:11.733Z,0.90
2022-10-23T04:56:39.472Z,0.70
2022-10-23T04:59:07.178Z,0.80
2022-10-23T05:01:36.855Z,0.98
2022-10-23T05:04:04.751Z,0.43
2022-10-23T05:06:32.500Z,0.88
2022-10-23T05:09:00.249Z,0.30
2022-10-23T05:11:27.949Z,0.77
2022-10-23T05:13:55.694Z,0.40
2022-10-23T05:16:37.245Z,0.70
2022-10-23T05:19:11.628Z,0.20
2022-10-23T05:21:41.473Z,1.10
2022-10-23T05:24:12.416Z,0.47
2022-10-23T05:26:40.280Z,0.50
2022-10-23T05:29:08.037Z,0.38
2022-10-23T05:31:37.126Z,0.85
2022-10-23T05:34:09.875Z,0.32
2022-10-23T05:36:40.423Z,0.80
2022-10-23T05:39:08.283Z,0.88
2022-10-23T05:41:36.187Z,1.05
2022-10-23T05:44:04.048Z,1.00
2022-10-23T05:46:31.797Z,0.98
2022-10-23T05:51:37.483Z,0.70
2022-10-23T05:54:07.690Z,0.80
2022-10-23T05:56:36.621Z,1.65
2022-10-23T05:59:05.228Z,1.20
2022-10-23T06:01:33.112Z,1.05
2022-10-23T06:04:01.813Z,0.98
2022-10-23T06:06:29.549Z,1.42
2022-10-23T06:08:58.752Z,1.27
2022-10-23T06:11:26.555Z,1.27
2022-10-23T06:13:54.492Z,1.15
2022-10-23T06:16:26.780Z,1.30
2022-10-23T06:18:57.315Z,1.25
2022-10-23T06:21:25.730Z,1.52
2022-10-23T06:23:53.469Z,0.63
2022-10-23T06:26:22.530Z,1.88
2022-10-23T06:28:50.259Z,1.17
2022-10-23T06:31:20.274Z,1.75
2022-10-23T06:33:47.978Z,1.38
2022-10-23T06:36:15.742Z,1.20
2022-10-23T06:38:43.478Z,1.73
2022-10-23T06:41:16.470Z,1.35
2022-10-23T06:43:48.559Z,1.70
2022-10-23T06:46:16.866Z,1.70
2022-10-23T06:48:45.127Z,1.15
2022-10-23T06:51:18.653Z,1.27
2022-10-23T06:53:46.996Z,0.88
2022-10-23T06:56:15.012Z,0.88
2022-10-23T06:58:43.128Z,1.13
2022-10-23T07:01:16.175Z,1.38
2022-10-23T07:03:44.196Z,1.40
2022-10-23T07:06:12.752Z,0.98
2022-10-23T07:08:40.706Z,1.13
2022-10-23T07:11:11.642Z,1.60
2022-10-23T07:13:40.573Z,1.48
2022-10-23T07:16:15.766Z,1.10
2022-10-23T07:18:44.590Z,1.63
2022-10-23T07:21:12.664Z,1.00
2022-10-23T07:23:40.533Z,1.33
2022-10-23T07:26:09.984Z,1.15
2022-10-23T07:28:38.817Z,1.48
2022-10-23T07:31:06.706Z,1.25
2022-10-23T07:33:35.766Z,1.27
2022-10-23T07:36:06.905Z,1.25
2022-10-23T07:38:35.286Z,1.27
2022-10-23T07:41:03.731Z,1.38
2022-10-23T07:46:00.534Z,1.38
2022-10-23T07:48:28.366Z,0.98
2022-10-23T07:51:02.945Z,0.75
2022-10-23T07:56:01.877Z,1.27
2022-10-23T07:58:30.939Z,1.70
2022-10-23T08:01:01.222Z,1.25
2022-10-23T08:03:31.505Z,1.13
2022-10-23T08:06:01.682Z,1.17
2022-10-23T08:08:29.430Z,1.25
2022-10-23T08:10:57.491Z,0.77
2022-10-23T08:13:25.242Z,1.50
2022-10-23T08:15:55.804Z,1.65
2022-10-23T08:18:23.555Z,1.70
2022-10-23T08:20:52.445Z,2.53
2022-10-23T08:23:42.632Z,2.08
2022-10-23T08:26:11.920Z,2.35
2022-10-23T08:28:39.941Z,1.65
2022-10-23T08:31:11.002Z,2.13
2022-10-23T08:33:39.597Z,1.70
2022-10-23T08:36:18.195Z,2.05
2022-10-23T08:38:47.572Z,2.00
2022-10-23T08:41:26.706Z,1.42
2022-10-23T08:44:03.925Z,1.70
2022-10-23T08:46:40.810Z,2.22
2022-10-23T08:49:35.886Z,1.90
2022-10-23T08:52:15.231Z,1.80
2022-10-23T08:54:57.618Z,1.52
2022-10-23T08:57:34.477Z,1.80
2022-10-23T09:00:07.685Z,1.95
2022-10-23T09:02:43.432Z,2.03
2022-10-23T09:05:18.615Z,1.83
2022-10-23T09:08:05.652Z,2.17
2022-10-23T09:11:02.260Z,2.40
2022-10-23T09:13:55.357Z,1.98
2022-10-23T09:16:44.214Z,1.77
2022-10-23T09:19:17.990Z,2.20
2022-10-23T09:21:49.755Z,1.93
2022-10-23T09:24:23.220Z,1.75
2022-10-23T09:26:54.880Z,1.50
2022-10-23T09:29:27.204Z,1.85
2022-10-23T09:31:58.652Z,2.10
2022-10-23T09:34:29.298Z,1.45
2022-10-23T09:36:59.177Z,1.88
2022-10-23T09:39:31.628Z,2.60
2022-10-23T09:42:03.114Z,3.13
2022-10-23T09:44:33.564Z,2.60
2022-10-23T09:47:11.962Z,1.90
2022-10-23T09:49:48.776Z,1.85
2022-10-23T09:52:35.869Z,1.63
2022-10-23T09:55:23.057Z,1.73
2022-10-23T09:57:54.847Z,2.08
2022-10-23T10:00:26.028Z,2.30
2022-10-23T10:03:00.622Z,1.58
2022-10-23T10:08:06.610Z,1.88
2022-10-23T10:10:40.882Z,2.30
2022-10-23T10:13:36.551Z,1.80
2022-10-23T10:16:14.450Z,1.95
2022-10-23T10:18:50.846Z,2.30
2022-10-23T10:21:25.395Z,1.90
2022-10-23T10:26:45.271Z,1.92
2022-10-23T10:29:29.771Z,1.88
2022-10-23T10:32:12.017Z,2.22
2022-10-23T10:34:51.551Z,2.22
2022-10-23T10:37:33.897Z,2.30
2022-10-23T10:40:14.974Z,2.13
2022-10-23T10:43:06.101Z,3.38
2022-10-23T10:45:42.749Z,2.05
2022-10-23T10:48:35.796Z,2.15
2022-10-23T10:51:09.113Z,2.17
2022-10-23T10:53:56.656Z,2.22
2022-10-23T10:56:30.469Z,2.40
2022-10-23T10:59:03.447Z,2.20
2022-10-23T11:01:41.806Z,1.77
2022-10-23T11:04:18.768Z,1.77
2022-10-23T11:06:53.357Z,1.75
2022-10-23T11:11:52.510Z,1.80
2022-10-23T11:14:24.522Z,1.83
2022-10-23T11:17:04.192Z,2.00
2022-10-23T11:19:38.434Z,1.48
2022-10-23T11:22:19.985Z,2.28
2022-10-23T11:25:28.585Z,2.15
2022-10-23T11:28:19.285Z,3.63
2022-10-23T11:31:11.924Z,1.98
2022-10-23T11:34:17.102Z,1.90
2022-10-23T11:36:51.221Z,1.75
2022-10-23T11:39:24.920Z,2.42
2022-10-23T11:41:56.688Z,2.00
2022-10-23T11:44:42.218Z,1.63
2022-10-23T11:47:39.722Z,1.30
2022-10-23T11:50:27.153Z,2.10
2022-10-23T11:53:20.897Z,1.70
2022-10-23T11:56:06.609Z,1.58
2022-10-23T11:58:47.765Z,1.33
2022-10-23T12:01:34.906Z,1.42
2022-10-23T12:04:17.448Z,1.40
2022-10-23T12:06:51.102Z,1.35
2022-10-23T12:09:30.232Z,1.67
2022-10-23T12:12:18.663Z,1.50
2022-10-23T12:14:49.340Z,1.60
2022-10-23T12:17:35.676Z,1.25
2022-10-23T12:20:24.092Z,1.52
2022-10-23T12:23:14.806Z,1.52
2022-10-23T12:26:08.224Z,1.35
2022-10-23T12:28:46.708Z,1.08
2022-10-23T12:31:31.728Z,1.85
2022-10-23T12:34:18.447Z,2.00
2022-10-23T12:37:07.933Z,1.42
2022-10-23T12:39:39.133Z,1.92
2022-10-23T12:42:16.698Z,1.33
2022-10-23T12:44:44.553Z,1.98
2022-10-23T12:47:19.614Z,1.65
2022-10-23T12:49:51.014Z,2.10
2022-10-23T12:52:21.525Z,2.00
2022-10-23T12:54:50.773Z,1.70
2022-10-23T12:57:25.460Z,1.77
2022-10-23T12:59:59.917Z,1.00
2022-10-23T13:05:01.922Z,1.60
2022-10-23T13:07:35.046Z,1.55
2022-10-23T13:10:06.779Z,1.33
2022-10-23T13:12:37.385Z,1.60
2022-10-23T13:15:18.703Z,2.00
2022-10-23T13:18:03.180Z,1.70
2022-10-23T13:20:34.472Z,1.40
2022-10-23T13:23:13.186Z,1.60
2022-10-23T13:25:42.391Z,1.65
2022-10-23T13:28:24.685Z,1.27
2022-10-23T13:31:24.720Z,1.85
2022-10-23T13:34:15.409Z,1.77
2022-10-23T13:36:55.387Z,1.85
2022-10-23T13:39:30.561Z,1.48
2022-10-23T13:42:11.692Z,1.92
2022-10-23T13:44:39.604Z,1.38
2022-10-23T13:47:12.702Z,1.33
2022-10-23T13:49:40.480Z,2.10
2022-10-23T13:52:13.621Z,1.40
2022-10-23T13:54:43.359Z,1.52
2022-10-23T13:57:16.331Z,1.42
2022-10-23T13:59:44.277Z,2.22
2022-10-23T14:02:21.269Z,1.75
2022-10-23T14:04:49.726Z,1.20
2022-10-23T14:07:17.548Z,1.60
2022-10-23T14:09:45.588Z,1.67
2022-10-23T14:12:14.637Z,1.70
2022-10-23T14:14:42.326Z,1.92
2022-10-23T14:17:10.044Z,1.83
2022-10-23T14:19:38.084Z,1.90
2022-10-23T14:22:06.824Z,1.65
2022-10-23T14:24:34.517Z,1.95
2022-10-23T14:27:02.234Z,2.03
2022-10-23T14:29:32.094Z,1.88
2022-10-23T14:32:00.011Z,1.70
2022-10-23T14:34:27.743Z,2.13
2022-10-23T14:37:08.244Z,1.60
2022-10-23T14:39:36.892Z,2.20
2022-10-23T14:42:05.018Z,1.58
2022-10-23T14:44:34.170Z,2.42
2022-10-23T14:47:02.973Z,2.40
2022-10-23T14:49:31.461Z,2.15
2022-10-23T14:51:59.249Z,2.33
2022-10-23T14:54:29.156Z,2.65
2022-10-23T14:56:56.989Z,2.40
2022-10-23T14:59:24.717Z,2.25
2022-10-23T15:04:26.677Z,1.83
2022-10-23T15:06:55.203Z,1.80
2022-10-23T15:09:22.946Z,1.67
2022-10-23T15:11:50.743Z,2.20
2022-10-23T15:14:18.482Z,2.03
2022-10-23T15:16:46.353Z,2.53
2022-10-23T15:19:18.697Z,1.90
2022-10-23T15:21:47.833Z,2.28
2022-10-23T15:24:16.021Z,2.30
2022-10-23T15:26:44.329Z,2.08
2022-10-23T15:29:14.301Z,1.63
2022-10-23T15:31:53.729Z,1.65
2022-10-23T15:34:26.767Z,1.85
2022-10-23T15:36:56.419Z,1.55
2022-10-23T15:39:27.916Z,1.55
2022-10-23T15:41:57.675Z,1.58
2022-10-23T15:44:28.439Z,1.50
2022-10-23T15:46:57.842Z,1.70
2022-10-23T15:49:29.347Z,2.00
2022-10-23T15:51:57.513Z,1.67
2022-10-23T15:54:28.178Z,2.08
2022-10-23T15:56:58.992Z,1.58
2022-10-23T15:59:27.878Z,1.85
2022-10-23T16:01:56.282Z,1.23
2022-10-23T16:04:24.119Z,2.08
2022-10-23T16:06:53.388Z,1.70
2022-10-23T16:09:21.201Z,1.50
2022-10-23T16:11:48.921Z,1.83
2022-10-23T16:14:18.060Z,1.88
2022-10-23T16:16:46.011Z,2.03
2022-10-23T16:19:14.616Z,1.50
2022-10-23T16:21:43.425Z,1.67
2022-10-23T16:24:12.627Z,1.63
2022-10-23T16:26:41.249Z,1.65
2022-10-23T16:29:10.448Z,2.17
2022-10-23T16:31:38.430Z,2.50
2022-10-23T16:34:06.837Z,2.08
2022-10-23T16:36:38.815Z,2.03
2022-10-23T16:39:07.882Z,1.58
2022-10-23T16:41:36.971Z,2.55
2022-10-23T16:44:05.505Z,1.65
2022-10-23T16:46:33.922Z,1.48
2022-10-23T16:49:03.797Z,1.38
2022-10-23T16:51:32.197Z,1.15
2022-10-23T16:54:00.443Z,1.80
2022-10-23T16:56:31.746Z,1.25
2022-10-23T16:59:01.358Z,1.30
2022-10-23T17:01:32.194Z,1.48
2022-10-23T17:04:00.931Z,1.50
2022-10-23T17:06:32.181Z,1.27
2022-10-23T17:09:02.157Z,1.65
2022-10-23T17:11:33.993Z,1.00
2022-10-23T17:14:06.834Z,1.40
2022-10-23T17:16:37.405Z,1.50
2022-10-23T17:19:21.015Z,1.42
2022-10-23T17:21:56.384Z,1.33
2022-10-23T17:24:25.183Z,1.70
2022-10-23T17:26:53.922Z,1.80
2022-10-23T17:29:23.034Z,2.25
2022-10-23T17:31:52.391Z,2.60
2022-10-23T17:34:23.417Z,2.10
2022-10-23T17:36:55.508Z,2.05
2022-10-23T17:39:28.074Z,2.03
2022-10-23T17:41:57.015Z,1.92
2022-10-23T17:44:26.680Z,2.08
2022-10-23T17:46:56.417Z,1.67
2022-10-23T17:49:25.732Z,2.20
2022-10-23T17:51:56.098Z,3.08
2022-10-23T17:54:25.405Z,3.08
2022-10-23T17:56:53.214Z,2.47
2022-10-23T17:59:21.202Z,2.55
2022-10-23T18:01:51.095Z,2.28
2022-10-23T18:04:21.120Z,2.38
2022-10-23T18:06:52.328Z,2.30
2022-10-23T18:09:21.976Z,2.60
2022-10-23T18:11:50.059Z,2.03
2022-10-23T18:14:20.143Z,2.35
2022-10-23T18:16:48.218Z,2.45
2022-10-23T18:19:18.985Z,2.13
2022-10-23T18:21:47.247Z,2.50
2022-10-23T18:24:16.015Z,2.13
2022-10-23T18:26:43.847Z,2.20
2022-10-23T18:29:13.741Z,2.20
2022-10-23T18:31:43.204Z,2.50
2022-10-23T18:34:18.970Z,2.45
2022-10-23T18:36:47.996Z,1.90
2022-10-23T18:39:19.284Z,1.77
2022-10-23T18:41:47.187Z,2.20
2022-10-23T18:44:18.354Z,2.22
2022-10-23T18:46:47.809Z,2.30
2022-10-23T18:49:19.855Z,2.58
2022-10-23T18:51:49.660Z,1.63
2022-10-23T18:54:20.263Z,1.80
2022-10-23T18:56:48.940Z,2.45
2022-10-23T18:59:20.434Z,1.80
2022-10-23T19:01:49.364Z,1.80
2022-10-23T19:04:18.872Z,1.90
2022-10-23T19:06:48.709Z,1.67
2022-10-23T19:09:16.750Z,1.85
2022-10-23T19:11:46.522Z,1.90
2022-10-23T19:14:14.446Z,1.95
2022-10-23T19:16:46.644Z,1.80
2022-10-23T19:19:22.245Z,1.80
2022-10-23T19:21:51.564Z,1.70
2022-10-23T19:24:23.808Z,1.38
2022-10-23T19:26:52.292Z,1.25
2022-10-23T19:29:24.161Z,1.70
2022-10-23T19:31:51.931Z,1.15
2022-10-23T19:34:24.642Z,1.52
2022-10-23T19:36:54.522Z,1.73
2022-10-23T19:39:22.978Z,1.88
2022-10-23T19:41:51.836Z,2.30
2022-10-23T19:44:21.066Z,1.95
2022-10-23T19:46:49.730Z,1.67
2022-10-23T19:49:18.078Z,1.20
2022-10-23T19:51:51.176Z,1.65
2022-10-23T19:54:20.431Z,1.73
2022-10-23T19:56:48.780Z,1.77
2022-10-23T19:59:17.061Z,1.65
2022-10-23T20:01:48.007Z,1.90
2022-10-23T20:04:18.297Z,2.03
2022-10-23T20:06:47.980Z,1.70
2022-10-23T20:09:15.734Z,1.60
2022-10-23T20:11:45.022Z,1.85
2022-10-23T20:14:13.713Z,1.90
2022-10-23T20:16:41.712Z,1.33
2022-10-23T20:19:13.003Z,1.63
2022-10-23T20:21:44.145Z,1.77
2022-10-23T20:24:16.018Z,2.08
2022-10-23T20:26:46.478Z,1.60
2022-10-23T20:29:15.080Z,1.75
2022-10-23T20:31:43.445Z,1.98
2022-10-23T20:34:12.564Z,1.25
2022-10-23T20:36:46.558Z,1.75
2022-10-23T20:39:20.144Z,1.60
2022-10-23T20:41:48.807Z,1.25
2022-10-23T20:44:19.432Z,1.02
2022-10-23T20:46:48.070Z,1.30
2022-10-23T20:49:16.895Z,1.25
2022-10-23T20:51:54.768Z,1.70
2022-10-23T20:54:27.415Z,1.40
2022-10-23T20:56:56.840Z,1.33
2022-10-23T20:59:24.676Z,1.00
2022-10-23T21:01:55.128Z,1.58
2022-10-23T21:04:26.344Z,1.25
2022-10-23T21:07:11.811Z,1.08
2022-10-23T21:09:41.187Z,1.20
2022-10-23T21:12:10.399Z,1.15
2022-10-23T21:14:39.437Z,1.25
2022-10-23T21:17:08.408Z,1.40
2022-10-23T21:19:36.508Z,1.20
2022-10-23T21:22:04.333Z,1.92
2022-10-23T21:24:32.039Z,1.35
2022-10-23T21:27:01.083Z,1.20
2022-10-23T21:29:28.836Z,1.90
2022-10-23T21:31:59.282Z,1.85
2022-10-23T21:34:29.074Z,1.55
2022-10-23T21:37:13.877Z,1.30
2022-10-23T21:39:42.485Z,1.45
2022-10-23T21:42:12.676Z,1.27
2022-10-23T21:44:41.058Z,1.13
2022-10-23T21:47:09.947Z,1.45
2022-10-23T21:49:37.794Z,1.70
2022-10-23T21:52:05.902Z,1.02
2022-10-23T21:54:34.040Z,1.75
2022-10-23T21:57:03.080Z,1.38
2022-10-23T21:59:35.460Z,1.50
2022-10-23T22:02:03.706Z,0.88
2022-10-23T22:04:31.834Z,1.33
2022-10-23T22:06:59.580Z,1.33
2022-10-23T22:09:27.301Z,1.98
2022-10-23T22:11:56.114Z,1.33
2022-10-23T22:14:24.654Z,1.45
2022-10-23T22:16:54.882Z,1.40
2022-10-23T22:19:23.769Z,1.77
2022-10-23T22:21:52.880Z,0.90
2022-10-23T22:24:21.316Z,1.42
2022-10-23T22:26:53.259Z,1.55
2022-10-23T22:29:24.784Z,1.38
2022-10-23T22:31:54.113Z,2.28
2022-10-23T22:34:41.175Z,1.73
2022-10-23T22:37:12.940Z,1.35
2022-10-23T22:39:41.532Z,1.48
2022-10-23T22:42:09.727Z,1.25
2022-10-23T22:44:37.479Z,0.93
2022-10-23T22:47:07.073Z,1.00
2022-10-23T22:49:35.059Z,1.13
2022-10-23T22:52:02.799Z,1.52
2022-10-23T22:54:31.613Z,1.00
2022-10-23T22:56:59.553Z,1.45
2022-10-23T22:59:27.440Z,1.02
2022-10-23T23:01:55.366Z,1.17
2022-10-23T23:04:39.830Z,1.20
2022-10-23T23:07:09.704Z,0.98
2022-10-23T23:09:40.232Z,1.20
2022-10-23T23:12:10.866Z,1.20
2022-10-23T23:14:39.164Z,1.55
2022-10-23T23:17:09.169Z,1.17
2022-10-23T23:19:38.315Z,0.73
2022-10-23T23:22:06.249Z,1.52
2022-10-23T23:24:34.153Z,1.08
2022-10-23T23:27:02.008Z,1.52
2022-10-23T23:29:30.079Z,1.55
2022-10-23T23:31:58.463Z,1.30
2022-10-23T23:34:26.240Z,0.93
2022-10-23T23:36:55.329Z,1.00
2022-10-23T23:39:23.676Z,1.38
2022-10-23T23:41:51.376Z,1.42
2022-10-23T23:44:19.111Z,1.02
2022-10-23T23:46:46.792Z,1.48
2022-10-23T23:49:14.602Z,1.42
2022-10-23T23:51:42.320Z,1.00
2022-10-23T23:54:11.422Z,1.42
2022-10-23T23:56:39.271Z,0.75
2022-10-23T23:59:07.159Z,1.13
